Buford, Colorado
Current Conditions -  °F | °C
As of 10:53 PM on Monday 20 Oct 2014 (Local Time) from KEEO Reporting Station
Scattered Clouds Scattered Clouds  
Wind Chill: 40°   Ceiling: Unl
Heat Index: 43°   Visibility: 10mi
Dew Point: 36°   Wind: 5mph
Humidity: 76%   Direction: 60°ENE
Pressure: 30.14"   Gusts: NA
Location:  40.0347°N, 107.628°W
Report Text: KEEO 210453Z AUTO 06004KT 10SM SCT100 06/02 A3014 RMK AO2 SLP160 T00610022
Loading
Personal Weather Stations






























Interactive Weather Map
Tropical Storm Tracking
New forecast layout! Learn more

10-Day Weather Forecast

Advertisements
Track Severe Weather on mobile